SBOSBO GOT / ESGG
Speedbird OnlineSpeedbird Online GOT / ESGG

Gothenburg-Landvetter Airport
10:33 11.4°C

Location Gothenborg, Sweden
Latitude: 57.662799835205
Longitude: 12.279800415039
Web Airport Website | Wikipedia
Altitude 154 Meter / 506 Feet
Distance 1,038 KM / 645 Miles
from London.
Time Zone UTC +2 hours (Europe/Stockholm)
Codes IATA: GOT
ICAO: ESGG
Currency £1 equals SEK 12.41
Runways
RunwayLength (m)Surface
033299Asphalt
213299Asphalt
Radio
TypeDescriptionFrequency
ATISATIS118.375
GCCDGND121.9
TCAGOTEBORG APP124.68
TWRTWR118.6
Live ATC
METAR ESGG 060750Z 25015KT 9999 SCT018 BKN024 11/08 Q1009
TAF TAF ESGG 060530Z 0606/0706 25018G28KT 9999 SCT010 BKN015 TEMPO 0606/0608 4000 SHRA BKN009 BKN020CB PROB40 0608/0624 SHRA BKN014 BKN020CB TEMPO 0703/0706 BKN008
Weather As Of 06 Oct 2022 10:33
Description Overcast clouds
Wind 32 km/h from West (250°)
Cloud Cover 100%
Precipitation Rain: none, Snow: none
Sunrise 07:24
Sunset 18:32
Lounges Vinga Lounge , Terminal 1
Rotations During the last 90 days there were
128 flights from LHR
127 flights to LHR


© 2017-2022 Speedbird Online